Time,TemperatureF,DewpointF,PressureIn,WindDirection,WindDirectionDegrees,WindSpeedMPH,WindSpeedGustMPH,Humidity,HourlyPrecipIn,Conditions,Clouds,dailyrainin,SoftwareType,DateUTC
2013-06-23 00:13:00,67.1,64.0,30.12,West,260,0.0,3.0,89,0.01,,,0.00,weatherlink.com 1.10,2013-06-23 04:13:00,
2013-06-23 00:29:00,66.9,64.0,30.11,West,268,0.0,3.0,90,0.00,,,0.00,weatherlink.com 1.10,2013-06-23 04:29:00,
2013-06-23 00:45:00,68.0,63.0,30.11,WSW,258,3.0,6.0,85,0.00,,,0.00,weatherlink.com 1.10,2013-06-23 04:45:00,
2013-06-23 01:03:00,66.9,64.0,30.11,WNW,301,0.0,1.0,90,0.00,,,0.00,weatherlink.com 1.10,2013-06-23 05:03:00,
2013-06-23 01:19:00,67.2,64.0,30.10,WSW,252,2.0,3.0,88,0.00,,,0.00,weatherlink.com 1.10,2013-06-23 05:19:00,
2013-06-23 01:35:00,69.0,63.0,30.10,SW,231,1.0,8.0,82,0.00,,,0.00,weatherlink.com 1.10,2013-06-23 05:35:00,
2013-06-23 01:51:00,68.3,64.0,30.09,NNW,339,0.0,2.0,86,0.00,,,0.00,weatherlink.com 1.10,2013-06-23 05:51:00,
2013-06-23 02:08:00,67.2,63.0,30.09,NNW,339,0.0,1.0,87,0.00,,,0.00,weatherlink.com 1.10,2013-06-23 06:08:00,
2013-06-23 02:24:00,68.6,65.0,30.09,NNE,33,1.0,6.0,87,0.00,,,0.00,weatherlink.com 1.10,2013-06-23 06:24:00,
2013-06-23 02:40:00,66.9,63.0,30.09,West,275,2.0,4.0,88,0.00,,,0.00,weatherlink.com 1.10,2013-06-23 06:40:00,
2013-06-23 02:56:00,68.6,64.0,30.08,NW,305,1.0,6.0,84,0.00,,,0.00,weatherlink.com 1.10,2013-06-23 06:56:00,
2013-06-23 03:12:00,67.3,64.0,30.07,ESE,118,5.0,5.0,89,0.00,,,0.00,weatherlink.com 1.10,2013-06-23 07:12:00,
2013-06-23 03:29:00,65.9,64.0,30.07,WNW,298,0.0,3.0,92,0.00,,,0.00,weatherlink.com 1.10,2013-06-23 07:29:00,
2013-06-23 03:45:00,65.0,63.0,30.07,WNW,298,1.0,1.0,94,0.00,,,0.00,weatherlink.com 1.10,2013-06-23 07:45:00,
2013-06-23 04:01:00,64.4,63.0,30.07,WNW,301,0.0,1.0,95,0.00,,,0.00,weatherlink.com 1.10,2013-06-23 08:01:00,
2013-06-23 04:17:00,64.3,63.0,30.06,WNW,298,0.0,1.0,95,0.00,,,0.00,weatherlink.com 1.10,2013-06-23 08:17:00,
2013-06-23 04:34:00,64.6,63.0,30.07,NNW,346,0.0,3.0,95,0.00,,,0.00,weatherlink.com 1.10,2013-06-23 08:34:00,
2013-06-23 04:50:00,64.3,63.0,30.07,NNW,339,0.0,1.0,95,0.00,,,0.00,weatherlink.com 1.10,2013-06-23 08:50:00,
2013-06-23 05:06:00,64.1,63.0,30.07,NW,323,0.0,1.0,95,0.00,,,0.00,weatherlink.com 1.10,2013-06-23 09:06:00,
2013-06-23 05:22:00,64.1,63.0,30.07,NE,39,1.0,2.0,95,0.00,,,0.00,weatherlink.com 1.10,2013-06-23 09:22:00,
2013-06-23 05:39:00,64.5,63.0,30.07,WNW,302,0.0,1.0,94,0.00,,,0.00,weatherlink.com 1.10,2013-06-23 09:39:00,
2013-06-23 05:55:00,64.6,63.0,30.07,NNW,346,0.0,3.0,95,0.00,,,0.00,weatherlink.com 1.10,2013-06-23 09:55:00,
2013-06-23 06:11:00,65.6,64.0,30.07,NNW,346,1.0,3.0,93,0.00,,,0.00,weatherlink.com 1.10,2013-06-23 10:11:00,
2013-06-23 06:27:00,68.3,64.0,30.07,WNW,294,3.0,10.0,87,0.00,,,0.00,weatherlink.com 1.10,2013-06-23 10:27:00,
2013-06-23 06:43:00,69.9,65.0,30.08,WNW,284,1.0,8.0,84,0.00,,,0.00,weatherlink.com 1.10,2013-06-23 10:43:00,
2013-06-23 07:01:00,70.8,65.0,30.08,WSW,257,4.0,7.0,82,0.00,,,0.00,weatherlink.com 1.10,2013-06-23 11:01:00,
2013-06-23 07:17:00,71.1,65.0,30.09,West,261,2.0,7.0,81,0.00,,,0.00,weatherlink.com 1.10,2013-06-23 11:17:00,
2013-06-23 07:33:00,71.1,65.0,30.09,WSW,245,5.0,9.0,81,0.00,,,0.00,weatherlink.com 1.10,2013-06-23 11:33:00,
2013-06-23 07:49:00,71.4,65.0,30.10,WSW,251,2.0,7.0,81,0.00,,,0.00,weatherlink.com 1.10,2013-06-23 11:49:00,
2013-06-23 08:05:00,71.7,65.0,30.10,West,270,2.0,7.0,80,0.00,,,0.00,weatherlink.com 1.10,2013-06-23 12:05:00,
2013-06-23 08:22:00,72.0,66.0,30.09,SW,220,4.0,6.0,81,0.00,,,0.00,weatherlink.com 1.10,2013-06-23 12:22:00,
2013-06-23 08:38:00,72.4,66.0,30.09,WNW,293,5.0,7.0,80,0.00,,,0.00,weatherlink.com 1.10,2013-06-23 12:38:00,
2013-06-23 08:54:00,72.9,66.0,30.08,SSW,201,4.0,10.0,79,0.00,,,0.00,weatherlink.com 1.10,2013-06-23 12:54:00,
2013-06-23 09:10:00,74.5,67.0,30.08,West,269,4.0,5.0,78,0.00,,,0.00,weatherlink.com 1.10,2013-06-23 13:10:00,
2013-06-23 09:27:00,75.5,67.0,30.08,WNW,292,4.0,7.0,75,0.00,,,0.00,weatherlink.com 1.10,2013-06-23 13:27:00,
2013-06-23 09:43:00,74.0,66.0,30.09,SW,221,5.0,10.0,77,0.00,,,0.00,weatherlink.com 1.10,2013-06-23 13:43:00,
2013-06-23 09:59:00,73.1,67.0,30.07,West,274,2.0,7.0,82,0.01,,,0.01,weatherlink.com 1.10,2013-06-23 13:59:00,
2013-06-23 10:15:00,72.2,68.0,30.08,NW,306,3.0,9.0,86,0.01,,,0.01,weatherlink.com 1.10,2013-06-23 14:15:00,
2013-06-23 10:48:00,72.7,69.0,30.07,NW,320,0.0,4.0,88,0.01,,,0.01,weatherlink.com 1.10,2013-06-23 14:48:00,
2013-06-23 11:04:00,73.9,69.0,30.06,West,267,3.0,3.0,84,0.00,,,0.01,weatherlink.com 1.10,2013-06-23 15:04:00,
2013-06-23 11:20:00,76.3,69.0,30.06,SW,220,6.0,10.0,77,0.00,,,0.01,weatherlink.com 1.10,2013-06-23 15:20:00,
2013-06-23 11:36:00,76.0,69.0,30.06,WSW,251,1.0,4.0,79,0.00,,,0.01,weatherlink.com 1.10,2013-06-23 15:36:00,
2013-06-23 11:53:00,76.5,70.0,30.05,WSW,252,3.0,3.0,80,0.00,,,0.01,weatherlink.com 1.10,2013-06-23 15:53:00,
2013-06-23 12:09:00,77.1,69.0,30.05,North,2,2.0,4.0,77,0.00,,,0.01,weatherlink.com 1.10,2013-06-23 16:09:00,
2013-06-23 12:25:00,79.0,70.0,30.04,WNW,295,2.0,5.0,75,0.00,,,0.01,weatherlink.com 1.10,2013-06-23 16:25:00,
2013-06-23 12:41:00,80.6,72.0,30.03,West,276,4.0,7.0,74,0.00,,,0.01,weatherlink.com 1.10,2013-06-23 16:41:00,
2013-06-23 12:58:00,82.2,71.0,30.03,NNE,28,3.0,5.0,70,0.00,,,0.01,weatherlink.com 1.10,2013-06-23 16:58:00,
2013-06-23 13:14:00,83.0,71.0,30.03,West,268,2.0,7.0,67,0.00,,,0.01,weatherlink.com 1.10,2013-06-23 17:14:00,
2013-06-23 13:30:00,83.0,70.0,30.02,NW,307,3.0,16.0,65,0.00,,,0.01,weatherlink.com 1.10,2013-06-23 17:30:00,
2013-06-23 13:46:00,84.2,71.0,30.02,WSW,242,1.0,6.0,65,0.00,,,0.01,weatherlink.com 1.10,2013-06-23 17:46:00,
2013-06-23 14:03:00,84.4,71.0,30.02,West,262,2.0,9.0,65,0.00,,,0.01,weatherlink.com 1.10,2013-06-23 18:03:00,
2013-06-23 14:19:00,85.3,71.0,30.00,West,269,7.0,9.0,63,0.00,,,0.01,weatherlink.com 1.10,2013-06-23 18:19:00,
2013-06-23 14:35:00,84.9,71.0,30.00,WSW,248,2.0,7.0,64,0.00,,,0.01,weatherlink.com 1.10,2013-06-23 18:35:00,
2013-06-23 14:51:00,85.2,71.0,29.99,WSW,246,3.0,15.0,62,0.00,,,0.01,weatherlink.com 1.10,2013-06-23 18:51:00,
2013-06-23 15:08:00,86.4,71.0,29.99,NW,313,3.0,10.0,61,0.00,,,0.01,weatherlink.com 1.10,2013-06-23 19:08:00,
2013-06-23 15:24:00,85.4,71.0,29.98,WSW,251,5.0,14.0,63,0.00,,,0.01,weatherlink.com 1.10,2013-06-23 19:24:00,
2013-06-23 15:40:00,86.7,72.0,29.97,WSW,238,8.0,10.0,62,0.00,,,0.01,weatherlink.com 1.10,2013-06-23 19:40:00,
2013-06-23 15:56:00,84.8,72.0,29.97,South,183,5.0,9.0,65,0.00,,,0.01,weatherlink.com 1.10,2013-06-23 19:56:00,
2013-06-23 16:13:00,85.5,72.0,29.96,WSW,251,6.0,10.0,65,0.00,,,0.01,weatherlink.com 1.10,2013-06-23 20:13:00,
2013-06-23 16:29:00,85.0,71.0,29.96,SW,231,4.0,11.0,64,0.00,,,0.01,weatherlink.com 1.10,2013-06-23 20:29:00,
2013-06-23 16:45:00,83.4,70.0,29.96,West,263,3.0,10.0,65,0.00,,,0.01,weatherlink.com 1.10,2013-06-23 20:45:00,
2013-06-23 17:01:00,83.0,70.0,29.95,WSW,237,4.0,10.0,65,0.00,,,0.01,weatherlink.com 1.10,2013-06-23 21:01:00,
2013-06-23 17:18:00,83.5,71.0,29.94,WSW,256,0.0,5.0,67,0.00,,,0.01,weatherlink.com 1.10,2013-06-23 21:18:00,
2013-06-23 17:35:00,85.8,71.0,29.93,NE,47,2.0,11.0,61,0.00,,,0.01,weatherlink.com 1.10,2013-06-23 21:35:00,
2013-06-23 17:51:00,87.8,71.0,29.93,SSW,213,7.0,9.0,57,0.00,,,0.01,weatherlink.com 1.10,2013-06-23 21:51:00,
2013-06-23 18:07:00,84.8,70.0,29.95,West,265,2.0,11.0,61,0.00,,,0.01,weatherlink.com 1.10,2013-06-23 22:07:00,
2013-06-23 18:23:00,83.3,70.0,29.95,West,277,5.0,8.0,65,0.00,,,0.01,weatherlink.com 1.10,2013-06-23 22:23:00,
2013-06-23 18:40:00,82.7,70.0,29.95,WNW,285,2.0,6.0,66,0.00,,,0.01,weatherlink.com 1.10,2013-06-23 22:40:00,
2013-06-23 18:56:00,82.0,70.0,29.95,SW,231,2.0,4.0,67,0.00,,,0.01,weatherlink.com 1.10,2013-06-23 22:56:00,
2013-06-23 19:12:00,75.5,68.0,29.96,North,359,5.0,10.0,78,0.10,,,0.11,weatherlink.com 1.10,2013-06-23 23:12:00,
2013-06-23 19:28:00,72.7,66.0,29.98,NNW,330,2.0,6.0,80,0.13,,,0.14,weatherlink.com 1.10,2013-06-23 23:28:00,
2013-06-23 19:45:00,69.6,67.0,29.98,NW,313,0.0,3.0,92,0.33,,,0.34,weatherlink.com 1.10,2013-06-23 23:45:00,
2013-06-23 20:01:00,69.3,67.0,29.99,NW,320,0.0,2.0,94,0.26,,,0.34,weatherlink.com 1.10,2013-06-24 00:01:00,
2013-06-23 20:17:00,69.4,67.0,29.99,North,7,1.0,2.0,93,0.23,,,0.34,weatherlink.com 1.10,2013-06-24 00:17:00,
2013-06-23 20:34:00,70.1,67.0,29.99,WSW,253,0.0,6.0,91,0.11,,,0.35,weatherlink.com 1.10,2013-06-24 00:34:00,
2013-06-23 20:50:00,69.9,68.0,29.97,NNE,17,2.0,3.0,93,0.04,,,0.38,weatherlink.com 1.10,2013-06-24 00:50:00,
2013-06-23 21:07:00,69.2,67.0,29.98,North,360,0.0,1.0,94,0.04,,,0.38,weatherlink.com 1.10,2013-06-24 01:07:00,
2013-06-23 21:24:00,70.5,68.0,29.99,West,260,0.0,4.0,92,0.04,,,0.38,weatherlink.com 1.10,2013-06-24 01:24:00,
2013-06-23 21:40:00,71.6,68.0,30.00,West,268,3.0,9.0,89,0.01,,,0.38,weatherlink.com 1.10,2013-06-24 01:40:00,
2013-06-23 21:56:00,72.3,68.0,30.00,WSW,256,1.0,9.0,87,0.00,,,0.38,weatherlink.com 1.10,2013-06-24 01:56:00,
2013-06-23 22:12:00,73.3,68.0,29.99,West,262,2.0,16.0,84,0.00,,,0.38,weatherlink.com 1.10,2013-06-24 02:12:00,
2013-06-23 22:29:00,73.7,69.0,29.99,West,275,4.0,10.0,84,0.00,,,0.38,weatherlink.com 1.10,2013-06-24 02:29:00,
2013-06-23 22:45:00,73.1,69.0,29.99,WSW,251,0.0,5.0,86,0.00,,,0.38,weatherlink.com 1.10,2013-06-24 02:45:00,
2013-06-23 23:01:00,71.0,68.0,29.99,NW,308,0.0,0.0,91,0.00,,,0.38,weatherlink.com 1.10,2013-06-24 03:01:00,
2013-06-23 23:17:00,70.4,68.0,29.98,WNW,284,2.0,7.0,91,0.00,,,0.38,weatherlink.com 1.10,2013-06-24 03:17:00,
2013-06-23 23:33:00,71.2,68.0,29.98,WSW,249,2.0,5.0,89,0.00,,,0.38,weatherlink.com 1.10,2013-06-24 03:33:00,
2013-06-23 23:50:00,71.6,67.0,29.97,SW,225,5.0,10.0,85,0.00,,,0.38,weatherlink.com 1.10,2013-06-24 03:50:00,